Home > Products > Valid Products > MTR

000
SAUS45 KGGW 210949
MTRJDN
METAR KJDN 210948Z AUTO 00000KT 03/M01 A2971 RMK AO1 SLP060
T00281006





000
SAUS45 KGGW 210849
MTRJDN
METAR KJDN 210848Z AUTO 00000KT 03/00 A2973 RMK AO1 SLP065 T00280000
56007





000
SAUS45 KGGW 210749
MTRJDN
METAR KJDN 210748Z AUTO 00000KT 03/00 A2974 RMK AO1 SLP068 T00330000





000
SAUS45 KGGW 210649
MTRJDN
METAR KJDN 210648Z AUTO 27003KT 04/01 A2974 RMK AO1 SLP070 T00440006
402671006





000
SAUS45 KGGW 210549
MTRJDN
METAR KJDN 210548Z AUTO 00000KT 06/01 A2975 RMK AO1 SLP074 T00610011
10200 20061 58008





000
SAUS45 KGGW 210449
MTRJDN
METAR KJDN 210448Z AUTO 35003KT 09/02 A2976 RMK AO1 SLP077 T00940017





000
SAUS45 KGGW 210349
MTRJDN
METAR KJDN 210348Z AUTO 00000KT 13/01 A2977 RMK AO1 SLP085 T01330011





000
SAUS45 KGGW 210349
MTRJDN
METAR KJDN 210348Z AUTO 00000KT 13/01 A2977 RMK AO1 SLP085 T01330011





000
SAUS45 KGGW 210249
MTRJDN
METAR KJDN 210248Z AUTO 15003KT 15/01 A2978 RMK AO1 SLP091 T01500006
58001





000
SAUS45 KGGW 210249
MTRJDN
METAR KJDN 210248Z AUTO 15003KT 15/01 A2978 RMK AO1 SLP091 T01500006
58001





000
SAUS45 KGGW 210149
MTRJDN
METAR KJDN 210148Z AUTO VRB03KT 16/01 A2978 RMK AO1 SLP095 T01560006





000
SAUS45 KGGW 210149
MTRJDN
METAR KJDN 210148Z AUTO VRB03KT 16/01 A2978 RMK AO1 SLP095 T01560006





000
SAUS45 KGGW 210049
MTRJDN
METAR KJDN 210048Z AUTO 00000KT 14/02 A2978 RMK AO1 SLP098 T01440017





000
SAUS45 KGGW 202349
MTRJDN
METAR KJDN 202348Z AUTO 17006KT 20/03 A2978 RMK AO1 SLP090 T02000028
10267 20200 56007





000
SAUS45 KGGW 202249
MTRJDN
METAR KJDN 202248Z AUTO 18006KT 26/01 A2979 RMK AO1 SLP087 T02560011





000
SAUS45 KGGW 202149
MTRJDN
METAR KJDN 202148Z AUTO 21011KT 26/01 A2980 RMK AO1 SLP088 T02610006





000
SAUS45 KGGW 202149
MTRJDN
METAR KJDN 202148Z AUTO 21011KT 26/01 A2980 RMK AO1 SLP088 T02610006





000
SAUS45 KGGW 202049
MTRJDN
METAR KJDN 202048Z AUTO 22010KT 26/01 A2980 RMK AO1 SLP087 T02560006
56016





000
SAUS45 KGGW 201949
MTRJDN
METAR KJDN 201948Z AUTO 21011KT 26/M01 A2981 RMK AO1 SLP088
T02611006





000
SAUS45 KGGW 201849
MTRJDN
METAR KJDN 201848Z AUTO 20010KT 24/00 A2983 RMK AO1 SLP095 T02440000





000
SAUS45 KGGW 201749
MTRJDN
METAR KJDN 201748Z AUTO 22011KT 23/02 A2985 RMK AO1 SLP103 T02280017
10228 21006 58010





000
SAUS45 KGGW 201649
MTRJDN
METAR KJDN 201648Z AUTO 21009KT 19/04 A2987 RMK AO1 SLP114 T01890039





000
SAUS45 KGGW 201549
MTRJDN
METAR KJDN 201548Z AUTO 00000KT 10/03 A2988 RMK AO1 SLP125 T01000033





000
SAUS45 KGGW 201449
MTRJDN
METAR KJDN 201448Z AUTO 00000KT 04/01 A2989 RMK AO1 SLP133 T00390006
56004





000
SAUS45 KGGW 201349
MTRJDN
METAR KJDN 201348Z AUTO 00000KT 01/M01 A2989 RMK AO1 SLP136
T00061011





000
SAUS45 KGGW 201249
MTRJDN
METAR KJDN 201248Z AUTO 00000KT M01/M02 A2989 RMK AO1 SLP137
T10061017





000
SAUS45 KGGW 201149
MTRJDN
METAR KJDN 201148Z AUTO 00000KT 02/M01 A2990 RMK AO1 SLP132
T00171006 10133 20000 58006





000
SAUS45 KGGW 201049
MTRJDN
METAR KJDN 201048Z AUTO 11003KT 01/M01 A2990 RMK AO1 SLP132
T00111006





000
SAUS45 KGGW 200949
MTRJDN
METAR KJDN 200948Z AUTO 13004KT 03/00 A2991 RMK AO1 SLP132 T00330000





000
SAUS45 KGGW 200949
MTRJDN
METAR KJDN 200948Z AUTO 13004KT 03/00 A2991 RMK AO1 SLP132 T00330000





000
SAUS45 KGGW 200849
MTRJDN
METAR KJDN 200848Z AUTO 00000KT 07/02 A2992 RMK AO1 SLP129 T00720022
56007





000
SAUS45 KGGW 200749
MTRJDN
METAR KJDN 200748Z AUTO 00000KT 09/02 A2992 RMK AO1 SLP130 T00890022





000
SAUS45 KGGW 200749
MTRJDN
METAR KJDN 200748Z AUTO 00000KT 09/02 A2992 RMK AO1 SLP130 T00890022





000
SAUS45 KGGW 200649
MTRJDN
METAR KJDN 200648Z AUTO 11003KT 11/03 A2993 RMK AO1 SLP134 T01060028
402220017





000
SAUS45 KGGW 200549
MTRJDN
METAR KJDN 200548Z AUTO VRB03KT 13/03 A2994 RMK AO1 SLP134 T01280028
10178 20094 58006





000
SAUS45 KGGW 200449
MTRJDN
METAR KJDN 200448Z AUTO 08003KT 11/03 A2994 RMK AO1 SLP141 T01110028





000
SAUS45 KGGW 200349
MTRJDN
METAR KJDN 200348Z AUTO 12005KT 11/03 A2995 RMK AO1 SLP148 T01110028





000
SAUS45 KGGW 200249
MTRJDN
METAR KJDN 200248Z AUTO 09005KT 11/03 A2996 RMK AO1 SLP154 T01110033
50001





000
SAUS45 KGGW 200149
MTRJDN
METAR KJDN 200148Z AUTO 13004KT 12/03 A2996 RMK AO1 SLP160 T01170033





000
SAUS45 KGGW 200052
MTRJDN
NO CARRIER

RING

CONNECT 1200

BOIMTRSNT ALL
TTAA00 KSNT 200051
METAR KSNT 200051Z AUTO 17006KT 09/M04 A3008 RMK AO1 SLP161
T00891039





000
SAUS45 KGGW 192349
MTRJDN
METAR KJDN 192348Z AUTO 15004KT 18/04 A2995 RMK AO1 SLP149 T01780044
10222 20178 56004





000
SAUS45 KGGW 192349
MTRJDN
METAR KJDN 192348Z AUTO 15004KT 18/04 A2995 RMK AO1 SLP149 T01780044
10222 20178 56004





000
SAUS45 KGGW 192249
MTRJDN
METAR KJDN 192248Z AUTO 16007KT 22/03 A2996 RMK AO1 SLP146 T02170033





000
SAUS45 KGGW 192249
MTRJDN
METAR KJDN 192248Z AUTO 16007KT 22/03 A2996 RMK AO1 SLP146 T02170033





000
SAUS45 KGGW 192149
MTRJDN
METAR KJDN 192148Z AUTO 20005KT 22/03 A2996 RMK AO1 SLP147 T02170033





000
SAUS45 KGGW 192049
MTRJDN
METAR KJDN 192048Z AUTO 21006KT 22/03 A2997 RMK AO1 SLP150 T02220028
58015





000
SAUS45 KGGW 191949
MTRJDN
METAR KJDN 191948Z AUTO 18006KT 22/03 A2999 RMK AO1 SLP155 T02170028





000
SAUS45 KGGW 191849
MTRJDN
METAR KJDN 191848Z AUTO 22005KT 21/03 A3000 RMK AO1 SLP163 T02060033





000
SAUS45 KGGW 191749
MTRJDN
METAR KJDN 191748Z AUTO 21007KT 20/04 A3001 RMK AO1 SLP167 T02000039
10200 20017 58004





000
SAUS45 KGGW 191652
MTRJDN
METAR KJD
NO CARRIER

RING

CONNECT 1200

BOIMTRSNT ALL
TTAA00 KSNT 191651
METAR KSNT 191651Z AUTO 00000KT 03/M02 A3021 RMK AO1 SLP203
T00331022





000
SAUS45 KGGW 191549
MTRJDN
METAR KJDN 191548Z AUTO 29006KT 12/04 A3002 RMK AO1 SLP176 T01170044





000
SAUS45 KGGW 191449
MTRJDN
METAR KJDN 191448Z AUTO 28006KT 07/03 A3002 RMK AO1 SLP183 T00670028
53008





000
SAUS45 KGGW 191349
MTRJDN
METAR KJDN 191348Z AUTO 28007KT 02/01 A3001 RMK AO1 SLP181 T00170006





000
SAUS45 KGGW 191249
MTRJDN
METAR KJDN 191248Z AUTO 27004KT 02/01 A3001 RMK AO1 SLP176 T00220006





000
SAUS45 KGGW 191149
MTRJDN
METAR KJDN 191148Z AUTO 30008KT 04/02 A3000 RMK AO1 SLP165 T00390017
10056 20028 51008





000
SAUS45 KGGW 191049
MTRJDN
METAR KJDN 191048Z AUTO 30008KT 04/02 A2999 RMK AO1 SLP159 T00440017





000
SAUS45 KGGW 191049
MTRJDN
METAR KJDN 191048Z AUTO 30008KT 04/02 A2999 RMK AO1 SLP159 T00440017





000
SAUS45 KGGW 190949
MTRJDN
METAR KJDN 190948Z AUTO 29008KT 05/02 A2998 RMK AO1 SLP154 T00500022





000
SAUS45 KGGW 190949
MTRJDN
METAR KJDN 190948Z AUTO 29008KT 05/02 A2998 RMK AO1 SLP154 T00500022





000
SAUS45 KGGW 190849
MTRJDN
METAR KJDN 190848Z AUTO 28006KT 03/01 A2997 RMK AO1 SLP152 T00330011
53011





000
SAUS45 KGGW 190749
MTRJDN
METAR KJDN 190748Z AUTO 29009KT 06/02 A2996 RMK AO1 SLP145 T00560017





000
SAUS45 KGGW 190649
MTRJDN
METAR KJDN 190648Z AUTO 29005KT 05/01 A2995 RMK AO1 SLP145 T00500011
402280022





000
SAUS45 KGGW 190549
MTRJDN
METAR KJDN 190548Z AUTO 28004KT 04/01 A2994 RMK AO1 SLP143 T00440011
10178 20039 53009





000
SAUS45 KGGW 190449
MTRJDN
METAR KJDN 190448Z AUTO 29003KT 06/01 A2993 RMK AO1 SLP142 T00560011





000
SAUS45 KGGW 190449
MTRJDN
METAR KJDN 190448Z AUTO 29003KT 06/01 A2993 RMK AO1 SLP142 T00560011





000
SAUS45 KGGW 190349
MTRJDN
METAR KJDN 190348Z AUTO 29007KT 08/03 A2992 RMK AO1 SLP140 T00780028





000
SAUS45 KGGW 190349
MTRJDN
METAR KJDN 190348Z AUTO 29007KT 08/03 A2992 RMK AO1 SLP140 T00780028





000
SAUS45 KGGW 190249
MTRJDN
METAR KJDN 190248Z AUTO 00000KT 06/02 A2991 RMK AO1 SLP145 T00610017
51016





000
SAUS45 KGGW 190149
MTRJDN
METAR KJDN 190148Z AUTO 29004KT 09/03 A2989 RMK AO1 SLP137 T00890028





000
SAUS45 KGGW 190049
MTRJDN
METAR KJDN 190048Z AUTO 28003KT 12/03 A2988 RMK AO1 SLP130 T01170028





000
SAUS45 KGGW 182349
MTRJDN
METAR KJDN 182348Z AUTO 30007KT 18/04 A2986 RMK AO1 SLP116 T01780039
10228 20178 55002





000
SAUS45 KGGW 182249
MTRJDN
METAR KJDN 182248Z AUTO 29009KT 22/02 A2985 RMK AO1 SLP111 T02170022





000
SAUS45 KGGW 182149
MTRJDN
METAR KJDN 182148Z AUTO 30015KT 22/01 A2987 RMK AO1 SLP112 T02220006





000
SAUS45 KGGW 182049
MTRJDN
METAR KJDN 182048Z AUTO 28018G22KT 23/02 A2986 RMK AO1 SLP111
T02280017 55004





000
SAUS45 KGGW 181949
MTRJDN
METAR KJDN 181948Z AUTO 31013KT 23/03 A2986 RMK AO1 SLP110 T02280028





000
SAUS45 KGGW 181949
MTRJDN
METAR KJDN 181948Z AUTO 31013KT 23/03 A2986 RMK AO1 SLP110 T02280028





000
SAUS45 KGGW 181849
MTRJDN
METAR KJDN 181848Z AUTO 26009KT 19/03 A2987 RMK AO1 SLP116 T01890028





000
SAUS45 KGGW 181749
MTRJDN
METAR KJDN 181748Z AUTO 26007KT 18/03 A2988 RMK AO1 SLP120 T01830033
10183 20022 58003





000
SAUS45 KGGW 181749
MTRJDN
METAR KJDN 181748Z AUTO 26007KT 18/03 A2988 RMK AO1 SLP120 T01830033
10183 20022 58003





000
SAUS45 KGGW 181652
MTRJDN
METAR KJDN 181648Z AUTO 25011KT 14/03 A2988 RMK AO1 SLP12
NO CARRIER

RING

CONNECT 1200

BOIMTRSNT ALL
TTAA00 KSNT 181651
METAR KSNT 181651Z AUTO 00000KT 06/M01 A3019 RMK AO1 SLP172
T00561006





000
SAUS45 KGGW 181652
MTRJDN
METAR KJDN 181648Z AUTO 25011KT 14/03 A2988 RMK AO1 SLP12
NO CARRIER

RING

CONNECT 1200

BOIMTRSNT ALL
TTAA00 KSNT 181651
METAR KSNT 181651Z AUTO 00000KT 06/M01 A3019 RMK AO1 SLP172
T00561006





000
SAUS45 KGGW 181549
MTRJDN
METAR KJDN 181548Z AUTO 28003KT 10/04 A2989 RMK AO1 SLP131 T01000039





000
SAUS45 KGGW 181549
MTRJDN
METAR KJDN 181548Z AUTO 28003KT 10/04 A2989 RMK AO1 SLP131 T01000039





000
SAUS45 KGGW 181449
MTRJDN
METAR KJDN 181448Z AUTO 00000KT 05/02 A2989 RMK AO1 SLP136 T00500022
56010





000
SAUS45 KGGW 181449
MTRJDN
METAR KJDN 181448Z AUTO 00000KT 05/02 A2989 RMK AO1 SLP136 T00500022
56010





000
SAUS45 KGGW 181349
MTRJDN
METAR KJDN 181348Z AUTO 00000KT 04/01 A2989 RMK AO1 SLP138 T00390011





000
SAUS45 KGGW 181249
MTRJDN
METAR KJDN 181248Z AUTO 09004KT 04/02 A2990 RMK AO1 SLP139 T00390017





000
SAUS45 KGGW 181149
MTRJDN
METAR KJDN 181148Z AUTO 13005KT 04/02 A2992 RMK AO1 SLP143 T00390017
10072 20033 56012





000
SAUS45 KGGW 181049
MTRJDN
METAR KJDN 181048Z AUTO 00000KT 04/01 A2993 RMK AO1 SLP144 T00390011





000
SAUS45 KGGW 181049
MTRJDN
METAR KJDN 181048Z AUTO 00000KT 04/01 A2993 RMK AO1 SLP144 T00390011





    US Dept of Commerce
    National Oceanic and Atmospheric Administration
    National Weather Service
    1325 East West Highway
    Silver Spring, MD 20910
    Page Author: NWS Internet Services Team
Disclaimer
Information Quality
Credits
Glossary
Privacy Policy
Freedom of Information Act (FOIA)
About Us
Career Opportunities